createdAt,value
2023-11-20T00:01:25.432Z,6.90
2023-11-20T00:03:54.094Z,6.90
2023-11-20T00:06:22.307Z,6.90
2023-11-20T00:08:51.757Z,6.90
2023-11-20T00:11:20.195Z,6.90
2023-11-20T00:13:48.349Z,6.90
2023-11-20T00:16:16.644Z,6.90
2023-11-20T00:18:44.786Z,6.90
2023-11-20T00:21:13.867Z,7.00
2023-11-20T00:23:42.221Z,7.00
2023-11-20T00:26:14.487Z,7.00
2023-11-20T00:28:45.878Z,7.00
2023-11-20T00:31:17.362Z,7.00
2023-11-20T00:33:45.875Z,7.00
2023-11-20T00:36:14.259Z,7.00
2023-11-20T00:38:42.401Z,7.00
2023-11-20T00:41:10.953Z,6.90
2023-11-20T00:43:41.653Z,7.00
2023-11-20T00:46:10.223Z,7.00
2023-11-20T00:48:38.367Z,7.00
2023-11-20T00:51:06.694Z,7.00
2023-11-20T00:53:35.241Z,6.90
2023-11-20T00:56:03.437Z,6.90
2023-11-20T00:58:31.676Z,6.90
2023-11-20T01:01:01.826Z,6.90
2023-11-20T01:03:30.207Z,6.90
2023-11-20T01:06:01.253Z,7.00
2023-11-20T01:08:29.940Z,7.00
2023-11-20T01:10:57.977Z,6.90
2023-11-20T01:13:27.337Z,6.90
2023-11-20T01:15:55.617Z,6.90
2023-11-20T01:18:25.306Z,6.90
2023-11-20T01:20:53.741Z,6.90
2023-11-20T01:23:21.873Z,7.00
2023-11-20T01:25:49.987Z,7.00
2023-11-20T01:28:18.089Z,7.00
2023-11-20T01:30:46.166Z,7.00
2023-11-20T01:33:15.638Z,6.90
2023-11-20T01:35:48.469Z,6.90
2023-11-20T01:38:17.974Z,6.90
2023-11-20T01:40:46.484Z,6.90
2023-11-20T01:43:15.965Z,6.90
2023-11-20T01:45:44.179Z,7.00
2023-11-20T01:48:12.345Z,7.00
2023-11-20T01:50:41.355Z,7.00
2023-11-20T01:53:12.685Z,7.00
2023-11-20T01:55:40.933Z,7.00
2023-11-20T01:58:10.310Z,7.00
2023-11-20T02:00:38.573Z,7.00
2023-11-20T02:03:10.161Z,7.10
2023-11-20T02:05:38.287Z,7.00
2023-11-20T02:08:06.675Z,7.10
2023-11-20T02:10:36.583Z,7.10
2023-11-20T02:13:05.902Z,7.10
2023-11-20T02:15:34.210Z,7.20
2023-11-20T02:18:02.583Z,7.10
2023-11-20T02:20:30.779Z,7.10
2023-11-20T02:22:58.872Z,7.10
2023-11-20T02:25:27.100Z,7.20
2023-11-20T02:28:18.585Z,7.10
2023-11-20T02:30:48.174Z,7.20
2023-11-20T02:33:16.415Z,7.20
2023-11-20T02:35:44.815Z,7.20
2023-11-20T02:38:13.347Z,7.20
2023-11-20T02:40:41.754Z,7.20
2023-11-20T02:43:09.868Z,7.20
2023-11-20T02:45:38.029Z,7.30
2023-11-20T02:48:07.712Z,7.20
2023-11-20T02:50:36.033Z,7.30
2023-11-20T02:53:05.267Z,7.30
2023-11-20T02:55:33.518Z,7.30
2023-11-20T02:58:03.010Z,7.30
2023-11-20T03:00:31.282Z,7.40
2023-11-20T03:03:00.661Z,7.40
2023-11-20T03:05:30.840Z,7.40
2023-11-20T03:08:00.214Z,7.40
2023-11-20T03:10:28.292Z,7.40
2023-11-20T03:12:56.420Z,7.50
2023-11-20T03:15:24.508Z,7.50
2023-11-20T03:17:52.648Z,7.50
2023-11-20T03:20:21.913Z,7.50
2023-11-20T03:22:51.410Z,7.50
2023-11-20T03:25:19.563Z,7.60
2023-11-20T03:27:48.108Z,7.50
2023-11-20T03:30:16.348Z,7.50
2023-11-20T03:32:44.473Z,7.50
2023-11-20T03:35:12.910Z,7.60
2023-11-20T03:37:41.486Z,7.60
2023-11-20T03:40:13.599Z,7.60
2023-11-20T03:42:42.406Z,7.60
2023-11-20T03:45:11.696Z,7.60
2023-11-20T03:47:39.820Z,7.60
2023-11-20T03:50:09.305Z,7.70
2023-11-20T03:52:37.393Z,7.70
2023-11-20T03:55:06.124Z,7.70
2023-11-20T03:57:35.682Z,7.70
2023-11-20T04:00:05.267Z,7.70
2023-11-20T04:02:34.536Z,7.70
2023-11-20T04:05:02.650Z,7.70
2023-11-20T04:07:30.726Z,7.80
2023-11-20T04:09:58.879Z,7.80
2023-11-20T04:12:28.240Z,7.80
2023-11-20T04:14:57.953Z,7.80
2023-11-20T04:17:26.184Z,7.90
2023-11-20T04:19:54.843Z,7.80
2023-11-20T04:22:23.599Z,7.80
2023-11-20T04:24:51.998Z,7.90
2023-11-20T04:27:20.470Z,7.80
2023-11-20T04:29:49.699Z,7.90
2023-11-20T04:32:19.125Z,7.80
2023-11-20T04:34:47.481Z,7.90
2023-11-20T04:37:16.499Z,7.90
2023-11-20T04:39:46.012Z,8.00
2023-11-20T04:42:14.135Z,8.00
2023-11-20T04:44:42.662Z,8.00
2023-11-20T04:47:10.920Z,8.00
2023-11-20T04:49:41.086Z,8.00
2023-11-20T04:52:09.279Z,8.00
2023-11-20T04:54:37.510Z,8.00
2023-11-20T04:57:06.186Z,8.00
2023-11-20T04:59:34.206Z,8.00
2023-11-20T05:02:02.351Z,8.00
2023-11-20T05:04:30.748Z,8.00
2023-11-20T05:07:00.423Z,8.00
2023-11-20T05:09:28.494Z,8.00
2023-11-20T05:11:58.473Z,8.00
2023-11-20T05:14:26.631Z,8.00
2023-11-20T05:16:54.982Z,8.00
2023-11-20T05:19:23.194Z,8.00
2023-11-20T05:21:51.444Z,8.00
2023-11-20T05:24:21.216Z,8.00
2023-11-20T05:26:49.294Z,8.00
2023-11-20T05:29:17.638Z,8.00
2023-11-20T05:31:46.330Z,7.90
2023-11-20T05:34:15.731Z,7.90
2023-11-20T05:36:43.917Z,8.00
2023-11-20T05:39:12.591Z,7.90
2023-11-20T05:41:42.034Z,7.90
2023-11-20T05:44:10.070Z,7.90
2023-11-20T05:46:38.504Z,8.00
2023-11-20T05:49:06.717Z,8.00
2023-11-20T05:51:34.813Z,7.90
2023-11-20T05:54:03.153Z,7.90
2023-11-20T05:56:32.468Z,8.00
2023-11-20T05:59:04.182Z,8.00
2023-11-20T06:01:38.747Z,7.90
2023-11-20T06:04:07.755Z,8.00
2023-11-20T06:06:35.947Z,8.00
2023-11-20T06:09:06.144Z,8.00
2023-11-20T06:11:35.558Z,8.00
2023-11-20T06:14:05.458Z,8.00
2023-11-20T06:16:33.561Z,8.00
2023-11-20T06:19:01.756Z,8.00
2023-11-20T06:21:29.822Z,8.10
2023-11-20T06:23:57.851Z,8.10
2023-11-20T06:26:27.249Z,8.10
2023-11-20T06:28:55.325Z,8.10
2023-11-20T06:31:24.893Z,8.10
2023-11-20T06:33:53.103Z,8.10
2023-11-20T06:36:22.830Z,8.10
2023-11-20T06:38:50.842Z,8.10
2023-11-20T06:41:19.792Z,8.10
2023-11-20T06:43:48.819Z,8.10
2023-11-20T06:46:20.215Z,8.20
2023-11-20T06:48:50.267Z,8.10
2023-11-20T06:51:19.150Z,8.10
2023-11-20T06:53:47.232Z,8.10
2023-11-20T06:56:19.077Z,8.10
2023-11-20T06:58:47.570Z,8.10
2023-11-20T07:01:16.090Z,8.10
2023-11-20T07:03:45.250Z,8.10
2023-11-20T07:06:15.785Z,8.10
2023-11-20T07:08:44.589Z,8.00
2023-11-20T07:11:12.971Z,8.00
2023-11-20T07:13:41.103Z,8.00
2023-11-20T07:16:10.303Z,8.00
2023-11-20T07:18:38.573Z,8.00
2023-11-20T07:21:10.030Z,8.00
2023-11-20T07:23:39.634Z,7.90
2023-11-20T07:26:07.824Z,7.90
2023-11-20T07:28:36.647Z,7.90
2023-11-20T07:31:05.952Z,7.90
2023-11-20T07:33:34.235Z,7.90
2023-11-20T07:36:02.338Z,8.00
2023-11-20T07:38:30.386Z,8.00
2023-11-20T07:41:03.485Z,8.00
2023-11-20T07:43:31.667Z,8.00
2023-11-20T07:45:59.834Z,8.00
2023-11-20T07:48:28.138Z,8.00
2023-11-20T07:50:56.639Z,8.00
2023-11-20T07:53:24.729Z,8.10
2023-11-20T07:55:52.844Z,8.10
2023-11-20T07:58:22.358Z,8.10
2023-11-20T08:00:50.720Z,8.20
2023-11-20T08:03:18.757Z,8.20
2023-11-20T08:05:49.801Z,8.30
2023-11-20T08:08:18.598Z,8.30
2023-11-20T08:10:47.301Z,8.30
2023-11-20T08:13:15.441Z,8.30
2023-11-20T08:15:45.714Z,8.40
2023-11-20T08:18:13.837Z,8.40
2023-11-20T08:20:41.928Z,8.40
2023-11-20T08:23:10.168Z,8.40
2023-11-20T08:25:38.273Z,8.40
2023-11-20T08:28:07.880Z,8.50
2023-11-20T08:30:35.971Z,8.40
2023-11-20T08:33:05.524Z,8.40
2023-11-20T08:35:34.753Z,8.40
2023-11-20T08:38:02.982Z,8.50
2023-11-20T08:40:31.201Z,8.50
2023-11-20T08:42:59.742Z,8.50
2023-11-20T08:45:28.369Z,8.60
2023-11-20T08:47:57.431Z,8.60
2023-11-20T08:50:27.346Z,8.60
2023-11-20T08:52:55.446Z,8.70
2023-11-20T08:55:24.478Z,8.70
2023-11-20T08:57:52.671Z,8.70
2023-11-20T09:00:21.185Z,8.70
2023-11-20T09:02:50.484Z,8.70
2023-11-20T09:05:18.528Z,8.80
2023-11-20T09:07:48.481Z,8.80
2023-11-20T09:10:16.655Z,8.90
2023-11-20T09:12:44.836Z,9.00
2023-11-20T09:15:14.852Z,9.00
2023-11-20T09:17:43.785Z,9.10
2023-11-20T09:20:13.691Z,9.20
2023-11-20T09:22:42.028Z,9.20
2023-11-20T09:25:13.172Z,9.30
2023-11-20T09:27:42.172Z,9.40
2023-11-20T09:30:13.820Z,9.60
2023-11-20T09:32:42.506Z,9.60
2023-11-20T09:35:11.883Z,9.60
2023-11-20T09:37:41.195Z,9.70
2023-11-20T09:40:12.748Z,9.70
2023-11-20T09:42:45.087Z,9.70
2023-11-20T09:45:28.386Z,9.70
2023-11-20T09:47:57.489Z,9.70
2023-11-20T09:50:28.878Z,9.70
2023-11-20T09:52:57.957Z,9.80
2023-11-20T09:55:28.062Z,9.80
2023-11-20T09:57:56.219Z,9.80
2023-11-20T10:00:25.915Z,9.80
2023-11-20T10:02:55.083Z,9.80
2023-11-20T10:05:34.051Z,9.80
2023-11-20T10:08:04.285Z,9.70
2023-11-20T10:10:36.321Z,9.80
2023-11-20T10:13:09.601Z,9.70
2023-11-20T10:15:38.859Z,9.70
2023-11-20T10:18:07.467Z,9.80
2023-11-20T10:20:48.954Z,9.80
2023-11-20T10:23:18.349Z,9.90
2023-11-20T10:25:48.432Z,9.90
2023-11-20T10:28:16.791Z,10.00
2023-11-20T10:30:46.617Z,10.00
2023-11-20T10:33:19.683Z,10.10
2023-11-20T10:35:47.908Z,10.10
2023-11-20T10:38:16.908Z,10.10
2023-11-20T10:40:49.551Z,10.20
2023-11-20T10:43:18.182Z,10.10
2023-11-20T10:45:47.053Z,10.20
2023-11-20T10:48:15.292Z,10.10
2023-11-20T10:50:45.646Z,10.10
2023-11-20T10:53:16.630Z,10.60
2023-11-20T10:55:53.556Z,11.10
2023-11-20T10:58:28.763Z,11.50
2023-11-20T11:00:58.091Z,11.70
2023-11-20T11:03:28.570Z,11.70
2023-11-20T11:06:01.919Z,11.70
2023-11-20T11:08:31.634Z,11.90
2023-11-20T11:11:00.215Z,12.00
2023-11-20T11:13:34.149Z,11.80
2023-11-20T11:16:02.859Z,11.80
2023-11-20T11:18:32.613Z,11.80
2023-11-20T11:21:01.625Z,11.70
2023-11-20T11:23:31.834Z,11.60
2023-11-20T11:26:14.557Z,11.50
2023-11-20T11:28:59.403Z,11.40
2023-11-20T11:31:38.869Z,11.40
2023-11-20T11:34:36.637Z,11.40
2023-11-20T11:37:10.834Z,11.50
2023-11-20T11:39:44.716Z,11.60
2023-11-20T11:42:17.337Z,11.80
2023-11-20T11:44:56.562Z,11.90
2023-11-20T11:47:24.698Z,12.00
2023-11-20T11:49:52.854Z,12.10
2023-11-20T11:52:26.927Z,11.90
2023-11-20T11:55:23.140Z,11.80
2023-11-20T11:57:55.246Z,11.80
2023-11-20T12:00:24.902Z,11.80
2023-11-20T12:02:58.324Z,11.80
2023-11-20T12:05:27.302Z,11.70
2023-11-20T12:07:55.109Z,11.60
2023-11-20T12:10:42.950Z,11.30
2023-11-20T12:13:13.022Z,11.10
2023-11-20T12:15:44.292Z,11.00
2023-11-20T12:18:15.783Z,10.90
2023-11-20T12:21:00.196Z,10.80
2023-11-20T12:23:31.445Z,10.80
2023-11-20T12:26:00.459Z,10.70
2023-11-20T12:28:33.082Z,10.70
2023-11-20T12:31:05.894Z,10.60
2023-11-20T12:33:36.549Z,10.60
2023-11-20T12:36:05.402Z,10.60
2023-11-20T12:38:35.189Z,10.60
2023-11-20T12:41:06.409Z,10.60
2023-11-20T12:43:37.030Z,10.70
2023-11-20T12:46:08.194Z,10.60
2023-11-20T12:48:41.279Z,10.50
2023-11-20T12:51:10.778Z,10.50
2023-11-20T12:53:39.995Z,10.30
2023-11-20T12:56:11.325Z,10.20
2023-11-20T12:58:42.585Z,10.10
2023-11-20T13:01:13.428Z,10.00
2023-11-20T13:03:41.804Z,9.90
2023-11-20T13:06:11.994Z,9.70
2023-11-20T13:08:41.366Z,9.60
2023-11-20T13:11:12.614Z,9.40
2023-11-20T13:13:43.847Z,9.30
2023-11-20T13:16:19.758Z,9.10
2023-11-20T13:18:49.796Z,9.00
2023-11-20T13:21:22.961Z,9.00
2023-11-20T13:24:00.808Z,8.70
2023-11-20T13:26:29.083Z,8.60
2023-11-20T13:28:58.935Z,8.60
2023-11-20T13:31:35.339Z,8.70
2023-11-20T13:34:08.030Z,8.80
2023-11-20T13:36:38.144Z,8.90
2023-11-20T13:39:09.674Z,9.00
2023-11-20T13:41:38.641Z,9.00
2023-11-20T13:44:09.970Z,8.90
2023-11-20T13:46:43.497Z,9.00
2023-11-20T13:49:12.493Z,8.80
2023-11-20T13:51:40.670Z,8.70
2023-11-20T13:54:10.716Z,8.50
2023-11-20T13:56:39.481Z,8.40
2023-11-20T13:59:09.800Z,8.40
2023-11-20T14:01:40.484Z,8.40
2023-11-20T14:04:11.039Z,8.30
2023-11-20T14:06:40.081Z,8.40
2023-11-20T14:09:08.193Z,8.40
2023-11-20T14:11:36.283Z,8.40
2023-11-20T14:14:04.604Z,8.40
2023-11-20T14:16:32.765Z,8.30
2023-11-20T14:19:02.337Z,8.30
2023-11-20T14:21:32.222Z,8.30
2023-11-20T14:24:00.566Z,8.20
2023-11-20T14:26:34.175Z,8.10
2023-11-20T14:29:03.504Z,7.90
2023-11-20T14:31:32.241Z,7.70
2023-11-20T14:34:01.908Z,7.60
2023-11-20T14:36:30.153Z,7.40
2023-11-20T14:38:59.674Z,7.30
2023-11-20T14:41:29.334Z,7.20
2023-11-20T14:43:57.974Z,7.20
2023-11-20T14:46:26.224Z,7.10
2023-11-20T14:48:54.830Z,7.00
2023-11-20T14:51:24.594Z,6.90
2023-11-20T14:53:53.399Z,6.90
2023-11-20T14:56:22.289Z,6.90
2023-11-20T14:58:51.491Z,6.90
2023-11-20T15:01:21.161Z,6.90
2023-11-20T15:03:49.978Z,6.90
2023-11-20T15:06:18.657Z,6.80
2023-11-20T15:08:48.461Z,6.90
2023-11-20T15:11:17.074Z,6.80
2023-11-20T15:13:45.532Z,6.80
2023-11-20T15:16:20.299Z,6.80
2023-11-20T15:18:48.491Z,6.80
2023-11-20T15:21:16.631Z,6.90
2023-11-20T15:23:44.683Z,6.90
2023-11-20T15:26:14.188Z,6.90
2023-11-20T15:28:42.346Z,6.90
2023-11-20T15:31:11.065Z,7.00
2023-11-20T15:33:39.893Z,6.90
2023-11-20T15:36:09.027Z,7.00
2023-11-20T15:38:37.115Z,6.90
2023-11-20T15:41:05.968Z,6.90
2023-11-20T15:43:35.569Z,6.90
2023-11-20T15:46:06.099Z,6.90
2023-11-20T15:48:34.258Z,6.90
2023-11-20T15:51:04.346Z,6.80
2023-11-20T15:53:32.579Z,6.80
2023-11-20T15:56:01.464Z,6.70
2023-11-20T15:58:32.493Z,6.70
2023-11-20T16:01:02.580Z,6.70
2023-11-20T16:03:30.825Z,6.60
2023-11-20T16:05:58.921Z,6.60
2023-11-20T16:08:26.970Z,6.70
2023-11-20T16:10:56.959Z,6.70
2023-11-20T16:13:25.123Z,6.70
2023-11-20T16:15:55.075Z,6.70
2023-11-20T16:18:24.890Z,6.70
2023-11-20T16:20:53.774Z,6.60
2023-11-20T16:23:23.535Z,6.50
2023-11-20T16:25:51.652Z,6.40
2023-11-20T16:28:19.829Z,6.30
2023-11-20T16:30:50.772Z,6.20
2023-11-20T16:33:20.775Z,6.10
2023-11-20T16:35:50.351Z,5.90
2023-11-20T16:38:18.434Z,5.80
2023-11-20T16:40:46.523Z,5.60
2023-11-20T16:43:15.571Z,5.40
2023-11-20T16:45:43.775Z,5.30
2023-11-20T16:48:12.140Z,5.20
2023-11-20T16:50:40.420Z,5.20
2023-11-20T16:53:09.899Z,5.10
2023-11-20T16:55:38.032Z,5.00
2023-11-20T16:58:07.002Z,5.00
2023-11-20T17:00:35.285Z,5.00
2023-11-20T17:03:03.743Z,5.00
2023-11-20T17:05:32.476Z,5.00
2023-11-20T17:08:00.647Z,5.10
2023-11-20T17:10:30.209Z,5.10
2023-11-20T17:12:58.405Z,5.10
2023-11-20T17:15:26.582Z,5.20
2023-11-20T17:17:54.639Z,5.40
2023-11-20T17:20:23.676Z,5.50
2023-11-20T17:22:52.142Z,5.60
2023-11-20T17:25:20.589Z,5.70
2023-11-20T17:27:50.147Z,5.80
2023-11-20T17:30:18.365Z,5.80
2023-11-20T17:32:47.156Z,5.90
2023-11-20T17:35:15.735Z,5.90
2023-11-20T17:37:43.911Z,6.00
2023-11-20T17:40:14.180Z,6.10
2023-11-20T17:42:42.266Z,6.10
2023-11-20T17:45:12.578Z,6.20
2023-11-20T17:47:40.917Z,6.20
2023-11-20T17:50:11.835Z,6.20
2023-11-20T17:52:40.359Z,6.30
2023-11-20T17:55:10.010Z,6.30
2023-11-20T17:57:38.441Z,6.30
2023-11-20T18:00:12.046Z,6.30
2023-11-20T18:02:46.843Z,6.30
2023-11-20T18:05:16.489Z,6.30
2023-11-20T18:07:44.712Z,6.30
2023-11-20T18:10:16.028Z,6.30
2023-11-20T18:12:44.939Z,6.30
2023-11-20T18:15:13.260Z,6.20
2023-11-20T18:17:42.847Z,6.10
2023-11-20T18:20:14.414Z,6.00
2023-11-20T18:22:43.805Z,5.90
2023-11-20T18:25:12.288Z,5.90
2023-11-20T18:27:40.488Z,6.00
2023-11-20T18:30:11.910Z,6.10
2023-11-20T18:32:41.594Z,6.10
2023-11-20T18:35:10.610Z,6.20
2023-11-20T18:37:43.473Z,6.20
2023-11-20T18:40:15.382Z,6.20
2023-11-20T18:42:45.320Z,6.20
2023-11-20T18:45:14.938Z,6.30
2023-11-20T18:47:48.242Z,6.30
2023-11-20T18:50:16.620Z,6.30
2023-11-20T18:52:46.899Z,6.30
2023-11-20T18:55:16.168Z,6.30
2023-11-20T18:57:45.749Z,6.30
2023-11-20T19:00:17.045Z,6.30
2023-11-20T19:02:45.919Z,6.30
2023-11-20T19:05:14.829Z,6.30
2023-11-20T19:07:45.446Z,6.30
2023-11-20T19:10:14.361Z,6.30
2023-11-20T19:12:45.800Z,6.40
2023-11-20T19:15:14.204Z,6.40
2023-11-20T19:17:43.493Z,6.40
2023-11-20T19:20:14.493Z,6.40
2023-11-20T19:22:43.043Z,6.50
2023-11-20T19:25:15.190Z,6.50
2023-11-20T19:27:44.664Z,6.50
2023-11-20T19:30:18.104Z,6.50
2023-11-20T19:32:47.980Z,6.50
2023-11-20T19:35:17.361Z,6.50
2023-11-20T19:37:45.880Z,6.50
2023-11-20T19:40:17.295Z,6.50
2023-11-20T19:42:45.700Z,6.50
2023-11-20T19:45:14.322Z,6.50
2023-11-20T19:47:42.984Z,6.60
2023-11-20T19:50:12.617Z,6.60
2023-11-20T19:52:41.669Z,6.60
2023-11-20T19:55:10.161Z,6.60
2023-11-20T19:57:39.869Z,6.60
2023-11-20T20:00:13.673Z,6.70
2023-11-20T20:02:43.481Z,6.60
2023-11-20T20:05:13.405Z,6.60
2023-11-20T20:07:41.596Z,6.60
2023-11-20T20:10:10.474Z,6.60
2023-11-20T20:12:40.031Z,6.60
2023-11-20T20:15:09.374Z,6.60
2023-11-20T20:17:37.893Z,6.60
2023-11-20T20:20:08.137Z,6.70
2023-11-20T20:22:37.854Z,6.60
2023-11-20T20:25:07.030Z,6.60
2023-11-20T20:27:35.511Z,6.60
2023-11-20T20:30:06.220Z,6.70
2023-11-20T20:32:36.973Z,6.70
2023-11-20T20:35:05.800Z,6.70
2023-11-20T20:37:39.403Z,6.70
2023-11-20T20:40:08.876Z,6.70
2023-11-20T20:42:37.022Z,6.80
2023-11-20T20:45:07.776Z,6.80
2023-11-20T20:47:36.193Z,6.80
2023-11-20T20:50:04.587Z,6.80
2023-11-20T20:52:32.763Z,6.80
2023-11-20T20:55:01.523Z,6.80
2023-11-20T20:57:30.129Z,6.80
2023-11-20T20:59:58.264Z,6.70
2023-11-20T21:02:27.763Z,6.70
2023-11-20T21:04:55.873Z,6.70
2023-11-20T21:07:24.059Z,6.70
2023-11-20T21:09:52.196Z,6.70
2023-11-20T21:12:20.548Z,6.70
2023-11-20T21:14:49.209Z,6.70
2023-11-20T21:17:17.413Z,6.70
2023-11-20T21:19:47.301Z,6.70
2023-11-20T21:22:16.097Z,6.70
2023-11-20T21:24:44.270Z,6.60
2023-11-20T21:27:22.636Z,6.50
2023-11-20T21:29:51.007Z,6.50
2023-11-20T21:32:20.096Z,6.50
2023-11-20T21:34:55.530Z,6.50
2023-11-20T21:37:30.410Z,6.50
2023-11-20T21:39:58.903Z,6.50
2023-11-20T21:42:27.037Z,6.50
2023-11-20T21:44:55.365Z,6.40
2023-11-20T21:47:23.450Z,6.40
2023-11-20T21:49:52.914Z,6.40
2023-11-20T21:52:21.003Z,6.40
2023-11-20T21:54:49.206Z,6.30
2023-11-20T21:57:17.315Z,6.30
2023-11-20T21:59:45.716Z,6.20
2023-11-20T22:02:13.977Z,6.10
2023-11-20T22:04:42.216Z,6.00
2023-11-20T22:07:12.615Z,6.00
2023-11-20T22:09:41.121Z,5.90
2023-11-20T22:12:10.076Z,5.90
2023-11-20T22:14:38.317Z,5.80
2023-11-20T22:17:07.633Z,5.80
2023-11-20T22:19:35.816Z,5.80
2023-11-20T22:22:04.961Z,5.70
2023-11-20T22:24:34.879Z,5.70
2023-11-20T22:27:02.926Z,5.80
2023-11-20T22:29:31.013Z,5.80
2023-11-20T22:31:59.252Z,5.70
2023-11-20T22:34:27.506Z,5.70
2023-11-20T22:36:57.127Z,5.70
2023-11-20T22:39:25.237Z,5.60
2023-11-20T22:41:54.718Z,5.60
2023-11-20T22:44:22.992Z,5.50
2023-11-20T22:46:51.051Z,5.40
2023-11-20T22:49:19.408Z,5.40
2023-11-20T22:51:48.028Z,5.30
2023-11-20T22:54:16.451Z,5.30
2023-11-20T22:56:44.821Z,5.20
2023-11-20T22:59:14.846Z,5.20
2023-11-20T23:01:43.049Z,5.10
2023-11-20T23:04:11.721Z,5.10
2023-11-20T23:06:40.816Z,5.10
2023-11-20T23:09:09.296Z,5.00
2023-11-20T23:11:37.345Z,5.00
2023-11-20T23:14:05.462Z,5.00
2023-11-20T23:16:35.443Z,5.00
2023-11-20T23:19:04.422Z,5.10
2023-11-20T23:21:32.551Z,5.10
2023-11-20T23:24:01.354Z,5.20
2023-11-20T23:26:29.547Z,5.20
2023-11-20T23:28:57.688Z,5.20
2023-11-20T23:31:26.097Z,5.20
2023-11-20T23:33:55.600Z,5.30
2023-11-20T23:36:23.691Z,5.30
2023-11-20T23:38:52.014Z,5.40
2023-11-20T23:41:20.221Z,5.40
2023-11-20T23:43:49.063Z,5.40
2023-11-20T23:46:17.323Z,5.50
2023-11-20T23:48:45.379Z,5.50
2023-11-20T23:51:14.928Z,5.50
2023-11-20T23:53:43.146Z,5.60
2023-11-20T23:56:11.209Z,5.60
2023-11-20T23:58:39.299Z,5.60
